sensor_id;sensor_type;location;lat;lon;timestamp;P1;durP1;ratioP1;P2;durP2;ratioP2
5785;SDS011;2919;48.630;9.000;2023-06-22T00:02:13;9.87;;;4.80;;
5785;SDS011;2919;48.630;9.000;2023-06-22T00:04:38;7.80;;;4.30;;
5785;SDS011;2919;48.630;9.000;2023-06-22T00:07:04;7.97;;;4.80;;
5785;SDS011;2919;48.630;9.000;2023-06-22T00:09:30;7.33;;;4.90;;
5785;SDS011;2919;48.630;9.000;2023-06-22T00:11:56;7.93;;;4.50;;
5785;SDS011;2919;48.630;9.000;2023-06-22T00:14:22;8.50;;;4.17;;
5785;SDS011;2919;48.630;9.000;2023-06-22T00:16:47;6.40;;;3.90;;
5785;SDS011;2919;48.630;9.000;2023-06-22T00:19:14;10.03;;;4.90;;
5785;SDS011;2919;48.630;9.000;2023-06-22T00:21:40;10.00;;;5.47;;
5785;SDS011;2919;48.630;9.000;2023-06-22T00:24:07;15.47;;;5.10;;
5785;SDS011;2919;48.630;9.000;2023-06-22T00:26:33;9.50;;;5.33;;
5785;SDS011;2919;48.630;9.000;2023-06-22T00:28:59;8.53;;;4.80;;
5785;SDS011;2919;48.630;9.000;2023-06-22T00:31:24;8.50;;;4.10;;
5785;SDS011;2919;48.630;9.000;2023-06-22T00:33:50;6.10;;;4.07;;
5785;SDS011;2919;48.630;9.000;2023-06-22T00:36:16;8.60;;;4.73;;
5785;SDS011;2919;48.630;9.000;2023-06-22T00:38:42;7.97;;;4.77;;
5785;SDS011;2919;48.630;9.000;2023-06-22T00:41:08;10.93;;;5.03;;
5785;SDS011;2919;48.630;9.000;2023-06-22T00:43:34;8.30;;;4.77;;
5785;SDS011;2919;48.630;9.000;2023-06-22T00:46:00;10.73;;;5.17;;
5785;SDS011;2919;48.630;9.000;2023-06-22T00:48:25;11.93;;;6.83;;
5785;SDS011;2919;48.630;9.000;2023-06-22T00:50:51;15.93;;;5.80;;
5785;SDS011;2919;48.630;9.000;2023-06-22T00:53:18;7.07;;;4.27;;
5785;SDS011;2919;48.630;9.000;2023-06-22T00:55:45;11.17;;;5.63;;
5785;SDS011;2919;48.630;9.000;2023-06-22T00:58:12;8.20;;;4.63;;
5785;SDS011;2919;48.630;9.000;2023-06-22T01:00:39;8.97;;;4.50;;
5785;SDS011;2919;48.630;9.000;2023-06-22T01:03:06;12.80;;;6.20;;
5785;SDS011;2919;48.630;9.000;2023-06-22T01:05:34;8.83;;;4.70;;
5785;SDS011;2919;48.630;9.000;2023-06-22T01:13:27;10.67;;;5.70;;
5785;SDS011;2919;48.630;9.000;2023-06-22T01:16:05;12.13;;;5.80;;
5785;SDS011;2919;48.630;9.000;2023-06-22T01:18:33;10.13;;;5.77;;
5785;SDS011;2919;48.630;9.000;2023-06-22T01:21:02;8.27;;;4.77;;
5785;SDS011;2919;48.630;9.000;2023-06-22T01:23:51;12.80;;;7.13;;
5785;SDS011;2919;48.630;9.000;2023-06-22T01:26:32;15.17;;;7.20;;
5785;SDS011;2919;48.630;9.000;2023-06-22T01:29:18;14.33;;;4.77;;
5785;SDS011;2919;48.630;9.000;2023-06-22T01:31:46;14.77;;;6.73;;
5785;SDS011;2919;48.630;9.000;2023-06-22T01:34:13;12.70;;;6.37;;
5785;SDS011;2919;48.630;9.000;2023-06-22T01:36:40;9.33;;;5.60;;
5785;SDS011;2919;48.630;9.000;2023-06-22T01:39:07;10.67;;;6.53;;
5785;SDS011;2919;48.630;9.000;2023-06-22T01:41:37;11.63;;;7.07;;
5785;SDS011;2919;48.630;9.000;2023-06-22T01:44:06;11.57;;;6.33;;
5785;SDS011;2919;48.630;9.000;2023-06-22T01:46:34;14.57;;;6.37;;
5785;SDS011;2919;48.630;9.000;2023-06-22T01:49:00;10.03;;;5.83;;
5785;SDS011;2919;48.630;9.000;2023-06-22T01:51:30;9.10;;;5.30;;
5785;SDS011;2919;48.630;9.000;2023-06-22T01:53:56;11.70;;;7.30;;
5785;SDS011;2919;48.630;9.000;2023-06-22T01:56:22;16.20;;;6.50;;
5785;SDS011;2919;48.630;9.000;2023-06-22T01:58:51;13.13;;;6.00;;
5785;SDS011;2919;48.630;9.000;2023-06-22T02:01:31;11.63;;;5.60;;
5785;SDS011;2919;48.630;9.000;2023-06-22T02:04:11;14.33;;;6.43;;
5785;SDS011;2919;48.630;9.000;2023-06-22T02:06:40;11.20;;;6.53;;
5785;SDS011;2919;48.630;9.000;2023-06-22T02:09:08;9.80;;;5.40;;
5785;SDS011;2919;48.630;9.000;2023-06-22T02:11:41;8.80;;;5.03;;
5785;SDS011;2919;48.630;9.000;2023-06-22T02:14:09;14.50;;;6.63;;
5785;SDS011;2919;48.630;9.000;2023-06-22T02:16:35;10.60;;;6.23;;
5785;SDS011;2919;48.630;9.000;2023-06-22T02:19:02;7.77;;;6.00;;
5785;SDS011;2919;48.630;9.000;2023-06-22T02:21:28;11.53;;;6.53;;
5785;SDS011;2919;48.630;9.000;2023-06-22T02:23:55;11.93;;;6.33;;
5785;SDS011;2919;48.630;9.000;2023-06-22T02:26:21;17.33;;;4.90;;
5785;SDS011;2919;48.630;9.000;2023-06-22T02:28:48;9.20;;;6.07;;
5785;SDS011;2919;48.630;9.000;2023-06-22T02:31:14;10.50;;;5.33;;
5785;SDS011;2919;48.630;9.000;2023-06-22T02:33:39;10.57;;;6.00;;
5785;SDS011;2919;48.630;9.000;2023-06-22T02:36:05;10.17;;;4.93;;
5785;SDS011;2919;48.630;9.000;2023-06-22T02:38:34;11.17;;;6.17;;
5785;SDS011;2919;48.630;9.000;2023-06-22T02:41:01;10.33;;;6.33;;
5785;SDS011;2919;48.630;9.000;2023-06-22T02:43:27;15.13;;;6.60;;
5785;SDS011;2919;48.630;9.000;2023-06-22T02:45:53;15.70;;;5.57;;
5785;SDS011;2919;48.630;9.000;2023-06-22T02:48:19;12.47;;;5.17;;
5785;SDS011;2919;48.630;9.000;2023-06-22T02:50:44;11.50;;;7.03;;
5785;SDS011;2919;48.630;9.000;2023-06-22T02:53:10;11.90;;;5.60;;
5785;SDS011;2919;48.630;9.000;2023-06-22T02:55:36;10.37;;;5.57;;
5785;SDS011;2919;48.630;9.000;2023-06-22T02:58:01;11.77;;;7.10;;
5785;SDS011;2919;48.630;9.000;2023-06-22T03:00:30;10.87;;;6.73;;
5785;SDS011;2919;48.630;9.000;2023-06-22T03:02:56;18.13;;;6.63;;
5785;SDS011;2919;48.630;9.000;2023-06-22T03:05:22;28.93;;;6.80;;
5785;SDS011;2919;48.630;9.000;2023-06-22T03:07:48;12.77;;;5.80;;
5785;SDS011;2919;48.630;9.000;2023-06-22T03:10:15;12.40;;;5.73;;
5785;SDS011;2919;48.630;9.000;2023-06-22T03:12:41;16.10;;;6.10;;
5785;SDS011;2919;48.630;9.000;2023-06-22T03:15:08;14.03;;;5.33;;
5785;SDS011;2919;48.630;9.000;2023-06-22T03:17:36;9.40;;;5.50;;
5785;SDS011;2919;48.630;9.000;2023-06-22T03:20:06;11.60;;;6.30;;
5785;SDS011;2919;48.630;9.000;2023-06-22T03:22:37;14.73;;;6.77;;
5785;SDS011;2919;48.630;9.000;2023-06-22T03:25:06;10.87;;;5.57;;
5785;SDS011;2919;48.630;9.000;2023-06-22T03:27:37;10.47;;;5.47;;
5785;SDS011;2919;48.630;9.000;2023-06-22T03:30:04;15.07;;;7.10;;
5785;SDS011;2919;48.630;9.000;2023-06-22T03:32:30;9.53;;;5.77;;
5785;SDS011;2919;48.630;9.000;2023-06-22T03:34:55;20.90;;;6.97;;
5785;SDS011;2919;48.630;9.000;2023-06-22T03:37:23;10.30;;;5.80;;
5785;SDS011;2919;48.630;9.000;2023-06-22T03:39:52;10.97;;;6.90;;
5785;SDS011;2919;48.630;9.000;2023-06-22T03:42:18;17.60;;;7.13;;
5785;SDS011;2919;48.630;9.000;2023-06-22T03:44:43;15.97;;;5.97;;
5785;SDS011;2919;48.630;9.000;2023-06-22T03:47:09;12.73;;;5.77;;
5785;SDS011;2919;48.630;9.000;2023-06-22T03:49:35;7.87;;;5.07;;
5785;SDS011;2919;48.630;9.000;2023-06-22T03:52:01;10.10;;;6.00;;
5785;SDS011;2919;48.630;9.000;2023-06-22T03:54:28;12.20;;;7.30;;
5785;SDS011;2919;48.630;9.000;2023-06-22T03:56:54;23.33;;;4.83;;
5785;SDS011;2919;48.630;9.000;2023-06-22T03:59:21;10.50;;;6.30;;
5785;SDS011;2919;48.630;9.000;2023-06-22T04:01:47;10.90;;;5.73;;
5785;SDS011;2919;48.630;9.000;2023-06-22T04:04:12;17.77;;;6.37;;
5785;SDS011;2919;48.630;9.000;2023-06-22T04:06:39;8.73;;;5.30;;
5785;SDS011;2919;48.630;9.000;2023-06-22T04:09:08;19.17;;;5.50;;
5785;SDS011;2919;48.630;9.000;2023-06-22T04:11:33;12.03;;;6.67;;
5785;SDS011;2919;48.630;9.000;2023-06-22T04:13:59;13.27;;;7.87;;
5785;SDS011;2919;48.630;9.000;2023-06-22T04:16:25;25.23;;;6.13;;
5785;SDS011;2919;48.630;9.000;2023-06-22T04:18:51;18.47;;;6.83;;
5785;SDS011;2919;48.630;9.000;2023-06-22T04:21:16;17.80;;;6.60;;
5785;SDS011;2919;48.630;9.000;2023-06-22T04:23:44;10.50;;;5.77;;
5785;SDS011;2919;48.630;9.000;2023-06-22T04:26:11;8.53;;;5.70;;
5785;SDS011;2919;48.630;9.000;2023-06-22T04:28:36;12.00;;;6.90;;
5785;SDS011;2919;48.630;9.000;2023-06-22T04:31:02;17.10;;;6.40;;
5785;SDS011;2919;48.630;9.000;2023-06-22T04:33:28;13.03;;;6.20;;
5785;SDS011;2919;48.630;9.000;2023-06-22T04:35:56;16.67;;;6.63;;
5785;SDS011;2919;48.630;9.000;2023-06-22T04:38:25;11.73;;;5.80;;
5785;SDS011;2919;48.630;9.000;2023-06-22T04:40:52;18.43;;;6.73;;
5785;SDS011;2919;48.630;9.000;2023-06-22T04:43:18;11.07;;;5.33;;
5785;SDS011;2919;48.630;9.000;2023-06-22T04:45:44;9.20;;;5.90;;
5785;SDS011;2919;48.630;9.000;2023-06-22T04:48:09;16.47;;;5.67;;
5785;SDS011;2919;48.630;9.000;2023-06-22T04:50:40;6.70;;;4.37;;
5785;SDS011;2919;48.630;9.000;2023-06-22T04:53:06;12.67;;;4.33;;
5785;SDS011;2919;48.630;9.000;2023-06-22T04:55:32;9.40;;;4.67;;
5785;SDS011;2919;48.630;9.000;2023-06-22T04:57:58;7.87;;;4.93;;
5785;SDS011;2919;48.630;9.000;2023-06-22T05:00:29;18.37;;;6.43;;
5785;SDS011;2919;48.630;9.000;2023-06-22T05:02:56;8.53;;;4.87;;
5785;SDS011;2919;48.630;9.000;2023-06-22T05:05:23;8.07;;;5.60;;
5785;SDS011;2919;48.630;9.000;2023-06-22T05:07:49;8.43;;;5.70;;
5785;SDS011;2919;48.630;9.000;2023-06-22T05:10:18;11.87;;;5.73;;
5785;SDS011;2919;48.630;9.000;2023-06-22T05:12:46;11.97;;;6.17;;
5785;SDS011;2919;48.630;9.000;2023-06-22T05:15:12;11.77;;;6.20;;
5785;SDS011;2919;48.630;9.000;2023-06-22T05:17:38;13.53;;;5.20;;
5785;SDS011;2919;48.630;9.000;2023-06-22T05:20:10;13.57;;;5.23;;
5785;SDS011;2919;48.630;9.000;2023-06-22T05:22:37;18.47;;;5.20;;
5785;SDS011;2919;48.630;9.000;2023-06-22T05:25:04;9.67;;;5.17;;
5785;SDS011;2919;48.630;9.000;2023-06-22T05:27:33;12.13;;;6.13;;
5785;SDS011;2919;48.630;9.000;2023-06-22T05:30:04;11.00;;;5.80;;
5785;SDS011;2919;48.630;9.000;2023-06-22T05:32:33;15.90;;;5.90;;
5785;SDS011;2919;48.630;9.000;2023-06-22T05:34:59;6.70;;;4.33;;
5785;SDS011;2919;48.630;9.000;2023-06-22T05:37:25;13.10;;;4.97;;
5785;SDS011;2919;48.630;9.000;2023-06-22T05:39:51;7.60;;;4.63;;
5785;SDS011;2919;48.630;9.000;2023-06-22T05:42:17;8.73;;;4.53;;
5785;SDS011;2919;48.630;9.000;2023-06-22T05:44:42;9.23;;;4.10;;
5785;SDS011;2919;48.630;9.000;2023-06-22T05:47:08;10.70;;;4.97;;
5785;SDS011;2919;48.630;9.000;2023-06-22T05:49:34;10.40;;;5.60;;
5785;SDS011;2919;48.630;9.000;2023-06-22T05:51:59;12.43;;;4.70;;
5785;SDS011;2919;48.630;9.000;2023-06-22T05:54:26;8.90;;;4.40;;
5785;SDS011;2919;48.630;9.000;2023-06-22T05:56:52;9.30;;;4.60;;
5785;SDS011;2919;48.630;9.000;2023-06-22T05:59:18;9.30;;;4.40;;
5785;SDS011;2919;48.630;9.000;2023-06-22T06:01:44;6.57;;;4.30;;
5785;SDS011;2919;48.630;9.000;2023-06-22T06:04:10;6.20;;;3.93;;
5785;SDS011;2919;48.630;9.000;2023-06-22T06:06:35;10.50;;;4.70;;
5785;SDS011;2919;48.630;9.000;2023-06-22T06:09:05;8.90;;;4.37;;
5785;SDS011;2919;48.630;9.000;2023-06-22T06:11:31;13.93;;;3.50;;
5785;SDS011;2919;48.630;9.000;2023-06-22T06:13:57;12.13;;;4.77;;
5785;SDS011;2919;48.630;9.000;2023-06-22T06:16:22;7.00;;;3.43;;
5785;SDS011;2919;48.630;9.000;2023-06-22T06:18:48;8.37;;;4.40;;
5785;SDS011;2919;48.630;9.000;2023-06-22T06:21:15;7.37;;;4.13;;
5785;SDS011;2919;48.630;9.000;2023-06-22T06:23:41;6.70;;;3.50;;
5785;SDS011;2919;48.630;9.000;2023-06-22T06:26:07;13.47;;;3.93;;
5785;SDS011;2919;48.630;9.000;2023-06-22T06:28:33;5.97;;;3.33;;
5785;SDS011;2919;48.630;9.000;2023-06-22T06:31:00;16.43;;;4.50;;
5785;SDS011;2919;48.630;9.000;2023-06-22T06:33:26;6.33;;;3.90;;
5785;SDS011;2919;48.630;9.000;2023-06-22T06:35:51;4.97;;;3.10;;
5785;SDS011;2919;48.630;9.000;2023-06-22T06:38:17;9.23;;;4.10;;
5785;SDS011;2919;48.630;9.000;2023-06-22T06:40:42;4.87;;;2.87;;
5785;SDS011;2919;48.630;9.000;2023-06-22T06:43:10;9.20;;;3.67;;
5785;SDS011;2919;48.630;9.000;2023-06-22T06:45:35;7.20;;;3.97;;
5785;SDS011;2919;48.630;9.000;2023-06-22T06:48:01;7.20;;;3.30;;
5785;SDS011;2919;48.630;9.000;2023-06-22T06:50:27;10.93;;;3.33;;
5785;SDS011;2919;48.630;9.000;2023-06-22T06:52:53;5.53;;;2.87;;
5785;SDS011;2919;48.630;9.000;2023-06-22T06:55:19;9.60;;;3.80;;
5785;SDS011;2919;48.630;9.000;2023-06-22T06:57:45;9.73;;;3.60;;
5785;SDS011;2919;48.630;9.000;2023-06-22T07:00:13;12.93;;;4.13;;
5785;SDS011;2919;48.630;9.000;2023-06-22T07:02:40;9.37;;;3.00;;
5785;SDS011;2919;48.630;9.000;2023-06-22T07:05:10;7.20;;;4.30;;
5785;SDS011;2919;48.630;9.000;2023-06-22T07:07:37;16.30;;;3.63;;
5785;SDS011;2919;48.630;9.000;2023-06-22T07:10:02;5.17;;;2.47;;
5785;SDS011;2919;48.630;9.000;2023-06-22T07:12:29;8.03;;;3.67;;
5785;SDS011;2919;48.630;9.000;2023-06-22T07:15:00;5.53;;;2.90;;
5785;SDS011;2919;48.630;9.000;2023-06-22T07:17:36;4.10;;;2.23;;
5785;SDS011;2919;48.630;9.000;2023-06-22T07:20:03;6.30;;;3.47;;
5785;SDS011;2919;48.630;9.000;2023-06-22T07:22:37;8.13;;;2.87;;
5785;SDS011;2919;48.630;9.000;2023-06-22T07:25:03;7.03;;;2.77;;
5785;SDS011;2919;48.630;9.000;2023-06-22T07:27:34;5.83;;;2.10;;
5785;SDS011;2919;48.630;9.000;2023-06-22T07:30:05;9.97;;;2.60;;
5785;SDS011;2919;48.630;9.000;2023-06-22T07:32:31;6.90;;;3.03;;
5785;SDS011;2919;48.630;9.000;2023-06-22T07:34:57;6.30;;;3.53;;
5785;SDS011;2919;48.630;9.000;2023-06-22T07:37:22;5.13;;;2.63;;
5785;SDS011;2919;48.630;9.000;2023-06-22T07:39:48;6.43;;;2.57;;
5785;SDS011;2919;48.630;9.000;2023-06-22T07:42:18;5.33;;;2.30;;
5785;SDS011;2919;48.630;9.000;2023-06-22T07:44:44;5.22;;;2.95;;
5785;SDS011;2919;48.630;9.000;2023-06-22T07:47:10;7.88;;;2.75;;
5785;SDS011;2919;48.630;9.000;2023-06-22T07:49:35;10.82;;;3.10;;
5785;SDS011;2919;48.630;9.000;2023-06-22T07:52:01;7.40;;;3.17;;
5785;SDS011;2919;48.630;9.000;2023-06-22T07:54:27;5.38;;;2.88;;
5785;SDS011;2919;48.630;9.000;2023-06-22T07:56:52;6.70;;;3.25;;
5785;SDS011;2919;48.630;9.000;2023-06-22T07:59:18;7.50;;;3.10;;
5785;SDS011;2919;48.630;9.000;2023-06-22T08:01:44;9.88;;;3.17;;
5785;SDS011;2919;48.630;9.000;2023-06-22T08:04:09;4.80;;;2.63;;
5785;SDS011;2919;48.630;9.000;2023-06-22T08:06:35;3.90;;;2.65;;
5785;SDS011;2919;48.630;9.000;2023-06-22T08:09:00;6.38;;;3.60;;
5785;SDS011;2919;48.630;9.000;2023-06-22T08:11:26;8.98;;;3.70;;
5785;SDS011;2919;48.630;9.000;2023-06-22T08:13:52;6.38;;;3.90;;
5785;SDS011;2919;48.630;9.000;2023-06-22T08:16:20;22.83;;;3.25;;
5785;SDS011;2919;48.630;9.000;2023-06-22T08:18:46;11.77;;;3.08;;
5785;SDS011;2919;48.630;9.000;2023-06-22T08:21:12;6.07;;;2.55;;
5785;SDS011;2919;48.630;9.000;2023-06-22T08:23:37;4.57;;;2.70;;
5785;SDS011;2919;48.630;9.000;2023-06-22T08:26:03;9.95;;;2.72;;
5785;SDS011;2919;48.630;9.000;2023-06-22T08:28:29;6.30;;;3.05;;
5785;SDS011;2919;48.630;9.000;2023-06-22T08:30:54;5.07;;;3.35;;
5785;SDS011;2919;48.630;9.000;2023-06-22T08:33:20;5.35;;;2.17;;
5785;SDS011;2919;48.630;9.000;2023-06-22T08:35:48;10.50;;;3.65;;
5785;SDS011;2919;48.630;9.000;2023-06-22T08:38:15;5.85;;;3.20;;
5785;SDS011;2919;48.630;9.000;2023-06-22T08:40:43;10.20;;;3.00;;
5785;SDS011;2919;48.630;9.000;2023-06-22T08:43:09;5.45;;;2.95;;
5785;SDS011;2919;48.630;9.000;2023-06-22T08:45:34;16.77;;;3.40;;
5785;SDS011;2919;48.630;9.000;2023-06-22T08:48:00;8.18;;;2.85;;
5785;SDS011;2919;48.630;9.000;2023-06-22T08:50:26;4.13;;;2.85;;
5785;SDS011;2919;48.630;9.000;2023-06-22T08:52:51;11.88;;;3.47;;
5785;SDS011;2919;48.630;9.000;2023-06-22T08:55:17;9.85;;;3.05;;
5785;SDS011;2919;48.630;9.000;2023-06-22T08:57:43;11.30;;;3.45;;
5785;SDS011;2919;48.630;9.000;2023-06-22T09:00:09;9.05;;;2.63;;
5785;SDS011;2919;48.630;9.000;2023-06-22T09:02:42;6.43;;;3.10;;
5785;SDS011;2919;48.630;9.000;2023-06-22T09:05:12;8.98;;;3.47;;
5785;SDS011;2919;48.630;9.000;2023-06-22T09:07:38;7.38;;;3.85;;
5785;SDS011;2919;48.630;9.000;2023-06-22T09:10:04;5.15;;;2.92;;
5785;SDS011;2919;48.630;9.000;2023-06-22T09:12:30;8.43;;;3.28;;
5785;SDS011;2919;48.630;9.000;2023-06-22T09:14:57;10.93;;;3.55;;
5785;SDS011;2919;48.630;9.000;2023-06-22T09:17:27;6.30;;;3.03;;
5785;SDS011;2919;48.630;9.000;2023-06-22T09:19:53;6.32;;;3.08;;
5785;SDS011;2919;48.630;9.000;2023-06-22T09:22:19;6.35;;;3.53;;
5785;SDS011;2919;48.630;9.000;2023-06-22T09:24:44;8.90;;;3.45;;
5785;SDS011;2919;48.630;9.000;2023-06-22T09:27:10;6.45;;;2.97;;
5785;SDS011;2919;48.630;9.000;2023-06-22T09:29:35;7.05;;;2.97;;
5785;SDS011;2919;48.630;9.000;2023-06-22T09:32:01;10.10;;;3.63;;
5785;SDS011;2919;48.630;9.000;2023-06-22T09:34:27;11.95;;;3.65;;
5785;SDS011;2919;48.630;9.000;2023-06-22T09:36:52;5.63;;;3.25;;
5785;SDS011;2919;48.630;9.000;2023-06-22T09:39:18;5.53;;;2.92;;
5785;SDS011;2919;48.630;9.000;2023-06-22T09:41:44;18.20;;;3.53;;
5785;SDS011;2919;48.630;9.000;2023-06-22T09:44:09;9.73;;;3.47;;
5785;SDS011;2919;48.630;9.000;2023-06-22T09:46:35;6.85;;;3.33;;
5785;SDS011;2919;48.630;9.000;2023-06-22T09:49:01;5.05;;;3.17;;
5785;SDS011;2919;48.630;9.000;2023-06-22T09:51:26;14.60;;;3.70;;
5785;SDS011;2919;48.630;9.000;2023-06-22T09:53:52;4.95;;;2.50;;
5785;SDS011;2919;48.630;9.000;2023-06-22T09:56:19;6.65;;;3.25;;
5785;SDS011;2919;48.630;9.000;2023-06-22T09:58:45;8.65;;;3.15;;
5785;SDS011;2919;48.630;9.000;2023-06-22T10:01:11;8.02;;;3.10;;
5785;SDS011;2919;48.630;9.000;2023-06-22T10:03:39;9.77;;;3.90;;
5785;SDS011;2919;48.630;9.000;2023-06-22T10:06:06;7.60;;;2.95;;
5785;SDS011;2919;48.630;9.000;2023-06-22T10:08:33;5.60;;;3.25;;
5785;SDS011;2919;48.630;9.000;2023-06-22T10:10:59;10.85;;;3.53;;
5785;SDS011;2919;48.630;9.000;2023-06-22T10:13:25;6.35;;;2.78;;
5785;SDS011;2919;48.630;9.000;2023-06-22T10:15:50;10.23;;;4.00;;
5785;SDS011;2919;48.630;9.000;2023-06-22T10:18:19;14.60;;;3.65;;
5785;SDS011;2919;48.630;9.000;2023-06-22T10:20:47;9.07;;;3.33;;
5785;SDS011;2919;48.630;9.000;2023-06-22T10:23:13;6.97;;;3.30;;
5785;SDS011;2919;48.630;9.000;2023-06-22T10:25:39;10.40;;;3.60;;
5785;SDS011;2919;48.630;9.000;2023-06-22T10:28:05;6.97;;;3.60;;
5785;SDS011;2919;48.630;9.000;2023-06-22T10:30:30;10.50;;;3.95;;
5785;SDS011;2919;48.630;9.000;2023-06-22T10:32:56;5.80;;;3.20;;
5785;SDS011;2919;48.630;9.000;2023-06-22T10:35:22;5.50;;;3.05;;
5785;SDS011;2919;48.630;9.000;2023-06-22T10:37:48;18.02;;;3.13;;
5785;SDS011;2919;48.630;9.000;2023-06-22T10:40:14;5.07;;;3.22;;
5785;SDS011;2919;48.630;9.000;2023-06-22T10:42:41;9.82;;;4.40;;
5785;SDS011;2919;48.630;9.000;2023-06-22T10:45:07;11.60;;;3.75;;
5785;SDS011;2919;48.630;9.000;2023-06-22T10:47:33;9.35;;;3.60;;
5785;SDS011;2919;48.630;9.000;2023-06-22T10:50:00;11.23;;;3.55;;
5785;SDS011;2919;48.630;9.000;2023-06-22T10:52:26;4.35;;;2.85;;
5785;SDS011;2919;48.630;9.000;2023-06-22T10:54:52;29.73;;;3.85;;
5785;SDS011;2919;48.630;9.000;2023-06-22T10:57:18;5.15;;;3.25;;
5785;SDS011;2919;48.630;9.000;2023-06-22T10:59:44;6.65;;;3.80;;
5785;SDS011;2919;48.630;9.000;2023-06-22T11:02:09;6.18;;;3.20;;
5785;SDS011;2919;48.630;9.000;2023-06-22T11:04:35;6.50;;;3.65;;
5785;SDS011;2919;48.630;9.000;2023-06-22T11:07:00;8.75;;;3.97;;
5785;SDS011;2919;48.630;9.000;2023-06-22T11:09:26;7.50;;;3.72;;
5785;SDS011;2919;48.630;9.000;2023-06-22T11:11:52;11.15;;;4.07;;
5785;SDS011;2919;48.630;9.000;2023-06-22T11:14:21;7.57;;;3.40;;
5785;SDS011;2919;48.630;9.000;2023-06-22T11:16:47;9.30;;;4.18;;
5785;SDS011;2919;48.630;9.000;2023-06-22T11:19:13;7.82;;;3.70;;
5785;SDS011;2919;48.630;9.000;2023-06-22T11:21:38;6.60;;;3.47;;
5785;SDS011;2919;48.630;9.000;2023-06-22T11:24:04;10.65;;;3.13;;
5785;SDS011;2919;48.630;9.000;2023-06-22T11:26:30;10.35;;;4.35;;
5785;SDS011;2919;48.630;9.000;2023-06-22T11:28:57;5.60;;;2.92;;
5785;SDS011;2919;48.630;9.000;2023-06-22T11:31:22;5.40;;;2.83;;
5785;SDS011;2919;48.630;9.000;2023-06-22T11:33:48;5.65;;;4.18;;
5785;SDS011;2919;48.630;9.000;2023-06-22T11:36:14;8.95;;;3.50;;
5785;SDS011;2919;48.630;9.000;2023-06-22T11:38:40;7.10;;;3.28;;
5785;SDS011;2919;48.630;9.000;2023-06-22T11:41:06;9.43;;;3.35;;
5785;SDS011;2919;48.630;9.000;2023-06-22T11:43:33;10.05;;;3.70;;
5785;SDS011;2919;48.630;9.000;2023-06-22T11:46:02;11.57;;;3.38;;
5785;SDS011;2919;48.630;9.000;2023-06-22T11:48:28;7.53;;;3.58;;
5785;SDS011;2919;48.630;9.000;2023-06-22T11:50:54;4.82;;;3.13;;
5785;SDS011;2919;48.630;9.000;2023-06-22T11:53:20;9.50;;;3.90;;
5785;SDS011;2919;48.630;9.000;2023-06-22T11:55:49;6.03;;;3.30;;
5785;SDS011;2919;48.630;9.000;2023-06-22T11:58:15;7.00;;;4.03;;
5785;SDS011;2919;48.630;9.000;2023-06-22T12:00:41;5.03;;;2.97;;
5785;SDS011;2919;48.630;9.000;2023-06-22T12:03:07;7.03;;;3.75;;
5785;SDS011;2919;48.630;9.000;2023-06-22T12:05:34;8.20;;;4.10;;
5785;SDS011;2919;48.630;9.000;2023-06-22T12:07:59;8.57;;;3.42;;
5785;SDS011;2919;48.630;9.000;2023-06-22T12:10:25;6.72;;;3.53;;
5785;SDS011;2919;48.630;9.000;2023-06-22T12:12:53;6.82;;;3.15;;
5785;SDS011;2919;48.630;9.000;2023-06-22T12:15:19;9.38;;;3.90;;
5785;SDS011;2919;48.630;9.000;2023-06-22T12:17:45;6.88;;;3.65;;
5785;SDS011;2919;48.630;9.000;2023-06-22T12:20:10;7.10;;;3.42;;
5785;SDS011;2919;48.630;9.000;2023-06-22T12:22:36;10.27;;;4.15;;
5785;SDS011;2919;48.630;9.000;2023-06-22T12:25:02;25.63;;;4.07;;
5785;SDS011;2919;48.630;9.000;2023-06-22T12:27:28;7.57;;;3.70;;
5785;SDS011;2919;48.630;9.000;2023-06-22T12:29:55;10.48;;;4.38;;
5785;SDS011;2919;48.630;9.000;2023-06-22T12:32:21;6.40;;;3.30;;
5785;SDS011;2919;48.630;9.000;2023-06-22T12:34:47;7.72;;;3.90;;
5785;SDS011;2919;48.630;9.000;2023-06-22T12:37:12;6.40;;;3.60;;
5785;SDS011;2919;48.630;9.000;2023-06-22T12:39:40;10.98;;;4.15;;
5785;SDS011;2919;48.630;9.000;2023-06-22T12:42:06;8.80;;;3.90;;
5785;SDS011;2919;48.630;9.000;2023-06-22T12:44:33;5.95;;;3.63;;
5785;SDS011;2919;48.630;9.000;2023-06-22T12:47:08;5.05;;;3.40;;
5785;SDS011;2919;48.630;9.000;2023-06-22T12:49:34;7.50;;;3.55;;
5785;SDS011;2919;48.630;9.000;2023-06-22T12:52:00;4.80;;;2.90;;
5785;SDS011;2919;48.630;9.000;2023-06-22T12:54:26;8.90;;;4.15;;
5785;SDS011;2919;48.630;9.000;2023-06-22T12:56:53;15.40;;;3.80;;
5785;SDS011;2919;48.630;9.000;2023-06-22T12:59:19;8.10;;;3.97;;
5785;SDS011;2919;48.630;9.000;2023-06-22T13:01:44;12.73;;;4.57;;
5785;SDS011;2919;48.630;9.000;2023-06-22T13:04:11;7.80;;;3.00;;
5785;SDS011;2919;48.630;9.000;2023-06-22T13:06:39;9.20;;;3.50;;
5785;SDS011;2919;48.630;9.000;2023-06-22T13:09:09;8.10;;;3.47;;
5785;SDS011;2919;48.630;9.000;2023-06-22T13:11:35;5.95;;;3.00;;
5785;SDS011;2919;48.630;9.000;2023-06-22T13:14:01;5.07;;;2.60;;
5785;SDS011;2919;48.630;9.000;2023-06-22T13:16:26;5.00;;;3.10;;
5785;SDS011;2919;48.630;9.000;2023-06-22T13:18:52;5.55;;;3.22;;
5785;SDS011;2919;48.630;9.000;2023-06-22T13:21:18;22.75;;;3.72;;
5785;SDS011;2919;48.630;9.000;2023-06-22T13:23:43;7.47;;;3.38;;
5785;SDS011;2919;48.630;9.000;2023-06-22T13:26:09;8.70;;;3.15;;
5785;SDS011;2919;48.630;9.000;2023-06-22T13:28:34;7.72;;;4.28;;
5785;SDS011;2919;48.630;9.000;2023-06-22T13:31:00;9.60;;;4.30;;
5785;SDS011;2919;48.630;9.000;2023-06-22T13:33:26;7.13;;;3.33;;
5785;SDS011;2919;48.630;9.000;2023-06-22T13:35:51;9.73;;;3.65;;
5785;SDS011;2919;48.630;9.000;2023-06-22T13:38:17;10.35;;;3.63;;
5785;SDS011;2919;48.630;9.000;2023-06-22T13:40:42;7.22;;;2.97;;
5785;SDS011;2919;48.630;9.000;2023-06-22T13:43:08;14.65;;;3.25;;
5785;SDS011;2919;48.630;9.000;2023-06-22T13:45:34;10.38;;;3.38;;
5785;SDS011;2919;48.630;9.000;2023-06-22T13:48:00;6.85;;;3.67;;
5785;SDS011;2919;48.630;9.000;2023-06-22T13:50:25;5.85;;;3.22;;
5785;SDS011;2919;48.630;9.000;2023-06-22T13:52:51;10.10;;;4.35;;
5785;SDS011;2919;48.630;9.000;2023-06-22T13:55:17;7.13;;;3.38;;
5785;SDS011;2919;48.630;9.000;2023-06-22T13:57:44;20.17;;;3.33;;
5785;SDS011;2919;48.630;9.000;2023-06-22T14:00:10;6.80;;;2.97;;
5785;SDS011;2919;48.630;9.000;2023-06-22T14:02:37;18.35;;;3.63;;
5785;SDS011;2919;48.630;9.000;2023-06-22T14:05:04;10.45;;;3.58;;
5785;SDS011;2919;48.630;9.000;2023-06-22T14:07:31;8.55;;;3.20;;
5785;SDS011;2919;48.630;9.000;2023-06-22T14:09:56;9.70;;;4.47;;
5785;SDS011;2919;48.630;9.000;2023-06-22T14:12:23;10.77;;;4.43;;
5785;SDS011;2919;48.630;9.000;2023-06-22T14:14:49;15.20;;;2.95;;
5785;SDS011;2919;48.630;9.000;2023-06-22T14:17:14;11.57;;;3.72;;
5785;SDS011;2919;48.630;9.000;2023-06-22T14:19:40;4.68;;;2.78;;
5785;SDS011;2919;48.630;9.000;2023-06-22T14:22:06;7.55;;;2.83;;
5785;SDS011;2919;48.630;9.000;2023-06-22T14:24:31;9.15;;;2.90;;
5785;SDS011;2919;48.630;9.000;2023-06-22T14:26:57;9.07;;;2.15;;
5785;SDS011;2919;48.630;9.000;2023-06-22T14:29:22;5.18;;;2.60;;
5785;SDS011;2919;48.630;9.000;2023-06-22T14:31:48;12.45;;;3.53;;
5785;SDS011;2919;48.630;9.000;2023-06-22T14:34:14;8.32;;;2.55;;
5785;SDS011;2919;48.630;9.000;2023-06-22T14:36:41;8.32;;;2.40;;
5785;SDS011;2919;48.630;9.000;2023-06-22T14:39:07;10.70;;;3.15;;
5785;SDS011;2919;48.630;9.000;2023-06-22T14:41:33;6.95;;;1.70;;
5785;SDS011;2919;48.630;9.000;2023-06-22T14:43:58;6.60;;;2.13;;
5785;SDS011;2919;48.630;9.000;2023-06-22T14:46:24;7.55;;;2.00;;
5785;SDS011;2919;48.630;9.000;2023-06-22T14:48:50;12.63;;;2.80;;
5785;SDS011;2919;48.630;9.000;2023-06-22T14:51:15;6.18;;;2.28;;
5785;SDS011;2919;48.630;9.000;2023-06-22T14:53:41;6.80;;;2.42;;
5785;SDS011;2919;48.630;9.000;2023-06-22T14:56:08;7.93;;;2.03;;
5785;SDS011;2919;48.630;9.000;2023-06-22T14:58:34;6.80;;;2.85;;
5785;SDS011;2919;48.630;9.000;2023-06-22T15:01:00;9.13;;;2.35;;
5785;SDS011;2919;48.630;9.000;2023-06-22T15:03:30;5.80;;;1.75;;
5785;SDS011;2919;48.630;9.000;2023-06-22T15:05:57;8.18;;;2.33;;
5785;SDS011;2919;48.630;9.000;2023-06-22T15:08:23;6.18;;;2.28;;
5785;SDS011;2919;48.630;9.000;2023-06-22T15:10:49;4.07;;;2.28;;
5785;SDS011;2919;48.630;9.000;2023-06-22T15:13:15;5.50;;;2.17;;